»·PEaware :: AAL313 KTUS-KELP

AAL313 :: KTUS-KELP

FLIGHT INFORMATION

Flight Status: Arrived
Operator:
American Airlines
More flights by this operator :: More flights under this callsign
Pilot: Joseph K. (11517)
Aircraft: BOEING 737-800
(B738)
More flights by this aircraft type
Origin: KTUS Tucson Intl
United States
Destination: KELP El Paso Intl
United States
More flights between these airports :: More routes between these airports
Route: +WLDKT3 SSO TEEES MOLLY4
File this flight plan on PilotEdge
Remarks:
Altitude:
(Current/Filed)
33,000ft
Speed:
(Current/Filed)
441kts
Departed: 10-Jan-18 05:40 PM
Arrived: 10-Jan-18 06:33 PM
Distance/Time
Traveled:
232nm/0:52
Distance/Time
To Go:
Arrived

Flight Plot

Page will automatically refresh every two minutes.

Flight plan parsing failed; only flown route is shown


Map Options




Map Legend


Flown Route
Filed Route
Departure Airport
Arrival Airport
Navaid (VOR, NDB)
Fix

Horizontal Profiles

Position Reports

Time Latitude Longitude Heading Altitude Ground
Speed
10-Jan-18 16:37 32.118481 -110.934950 225 2606ft 0kts
10-Jan-18 16:38 32.118481 -110.934950 225 2606ft 0kts
10-Jan-18 16:39 32.118481 -110.934950 225 2606ft 0kts
10-Jan-18 16:40 32.118481 -110.934950 225 2606ft 0kts
10-Jan-18 16:41 32.118481 -110.934950 225 2606ft 0kts
10-Jan-18 16:42 32.118481 -110.934950 225 2606ft 0kts
10-Jan-18 16:43 32.118481 -110.934950 225 2606ft 0kts
10-Jan-18 16:44 32.118481 -110.934950 225 2606ft 0kts
10-Jan-18 16:45 32.118481 -110.934950 225 2606ft 0kts
10-Jan-18 16:46 32.118481 -110.934950 225 2606ft 0kts
10-Jan-18 16:47 32.118481 -110.934950 225 2606ft 0kts
10-Jan-18 16:48 32.118481 -110.934950 225 2606ft 0kts
10-Jan-18 16:49 32.118481 -110.934950 225 2606ft 0kts
10-Jan-18 16:50 32.118481 -110.934950 225 2606ft 0kts
10-Jan-18 16:51 32.118481 -110.934950 225 2606ft 0kts
10-Jan-18 16:52 32.118481 -110.934950 225 2606ft 0kts
10-Jan-18 16:53 32.118481 -110.934950 225 2606ft 0kts
10-Jan-18 16:54 32.118481 -110.934950 225 2606ft 0kts
10-Jan-18 16:55 32.118481 -110.934950 225 2606ft 0kts
10-Jan-18 16:56 32.118481 -110.934950 225 2606ft 0kts
10-Jan-18 16:57 32.118481 -110.934950 225 2606ft 0kts
10-Jan-18 16:58 32.118481 -110.934950 225 2606ft 0kts
10-Jan-18 16:59 32.118481 -110.934950 225 2606ft 0kts
10-Jan-18 17:00 32.118481 -110.934950 225 2606ft 0kts
10-Jan-18 17:01 32.118481 -110.934950 225 2606ft 0kts
10-Jan-18 17:02 32.118481 -110.934950 225 2606ft 0kts
10-Jan-18 17:03 32.118481 -110.934950 225 2606ft 0kts
10-Jan-18 17:04 32.118481 -110.934950 225 2606ft 0kts
10-Jan-18 17:05 32.118481 -110.934950 225 2606ft 0kts
10-Jan-18 17:06 32.118481 -110.934950 225 2606ft 0kts
10-Jan-18 17:07 32.118481 -110.934950 225 2606ft 0kts
10-Jan-18 17:08 32.118481 -110.934950 225 2606ft 0kts
10-Jan-18 17:09 32.118481 -110.934950 225 2606ft 0kts
10-Jan-18 17:10 32.118481 -110.934950 225 2606ft 0kts
10-Jan-18 17:11 32.118481 -110.934950 225 2606ft 0kts
10-Jan-18 17:12 32.118481 -110.934950 225 2606ft 0kts
10-Jan-18 17:13 32.118481 -110.934950 225 2606ft 0kts
10-Jan-18 17:14 32.118481 -110.934950 225 2606ft 0kts
10-Jan-18 17:15 32.118481 -110.934950 225 2606ft 0kts
10-Jan-18 17:16 32.118481 -110.934950 225 2606ft 0kts
10-Jan-18 17:17 32.118481 -110.934950 225 2606ft 0kts
10-Jan-18 17:18 32.118481 -110.934950 225 2606ft 0kts
10-Jan-18 17:19 32.118545 -110.934874 225 2606ft 2kts
10-Jan-18 17:20 32.118936 -110.934426 198 2607ft 2kts
10-Jan-18 17:21 32.119211 -110.934538 133 2606ft 0kts
10-Jan-18 17:22 32.119211 -110.934538 133 2606ft 0kts
10-Jan-18 17:23 32.119211 -110.934538 133 2606ft 0kts
10-Jan-18 17:24 32.119211 -110.934538 133 2606ft 0kts
10-Jan-18 17:25 32.119211 -110.934538 133 2606ft 0kts
10-Jan-18 17:26 32.119211 -110.934538 133 2606ft 0kts
10-Jan-18 17:27 32.119211 -110.934538 133 2606ft 0kts
10-Jan-18 17:28 32.119210 -110.934538 133 2606ft 0kts
10-Jan-18 17:29 32.119210 -110.934538 133 2606ft 0kts
10-Jan-18 17:30 32.119210 -110.934538 133 2606ft 0kts
10-Jan-18 17:31 32.118591 -110.933799 145 2609ft 8kts
10-Jan-18 17:32 32.116999 -110.935027 231 2609ft 9kts
10-Jan-18 17:33 32.115684 -110.934386 133 2613ft 8kts
10-Jan-18 17:34 32.112876 -110.933074 136 2620ft 10kts
10-Jan-18 17:35 32.110221 -110.929970 135 2629ft 18kts
10-Jan-18 17:36 32.106200 -110.925274 134 2644ft 13kts
10-Jan-18 17:37 32.104934 -110.923769 134 2650ft 3kts
10-Jan-18 17:38 32.104228 -110.922932 135 2652ft 0kts
10-Jan-18 17:39 32.104228 -110.922932 135 2652ft 0kts
10-Jan-18 17:40 32.103835 -110.922472 135 2652ft 0kts
10-Jan-18 17:41 32.103512 -110.922111 150 2653ft 0kts
10-Jan-18 17:42 32.103125 -110.922093 213 2653ft 6kts
10-Jan-18 17:43 32.103037 -110.922176 219 2653ft 0kts
10-Jan-18 17:44 32.103037 -110.922176 219 2653ft 0kts
10-Jan-18 17:45 32.102543 -110.923475 306 2651ft 0kts
10-Jan-18 17:46 32.104555 -110.925877 314 2644ft 87kts
10-Jan-18 17:47 32.134635 -110.965378 309 4861ft 198kts
10-Jan-18 17:48 32.175709 -111.026334 309 7900ft 256kts
10-Jan-18 17:49 32.229636 -111.078188 2 11323ft 296kts
10-Jan-18 17:50 32.291629 -111.005589 44 15035ft 341kts
10-Jan-18 17:51 32.353236 -110.917749 59 18371ft 378kts
10-Jan-18 17:52 32.353430 -110.785622 91 21433ft 427kts
10-Jan-18 17:53 32.337500 -110.642022 90 24071ft 457kts
10-Jan-18 17:54 32.326448 -110.491613 84 27170ft 459kts
10-Jan-18 17:55 32.319206 -110.341877 84 30144ft 458kts
10-Jan-18 17:56 32.311861 -110.190784 84 31689ft 484kts
10-Jan-18 17:57 32.303806 -110.026948 83 33038ft 510kts
10-Jan-18 17:58 32.295547 -109.852598 84 33021ft 543kts
10-Jan-18 17:59 32.287278 -109.674688 84 33010ft 542kts
10-Jan-18 18:00 32.279348 -109.497593 84 33020ft 542kts
10-Jan-18 18:01 32.271684 -109.320498 84 33017ft 542kts
10-Jan-18 18:02 32.269276 -109.146387 81 33012ft 517kts
10-Jan-18 18:03 32.308934 -108.997011 44 33006ft 470kts
10-Jan-18 18:04 32.385254 -108.871262 44 32992ft 470kts
10-Jan-18 18:05 32.461428 -108.746377 44 32982ft 470kts
10-Jan-18 18:06 32.526537 -108.617892 68 32132ft 455kts
10-Jan-18 18:07 32.499313 -108.476289 128 31155ft 461kts
10-Jan-18 18:08 32.400711 -108.378444 144 30275ft 465kts
10-Jan-18 18:09 32.300999 -108.286055 140 29304ft 465kts
10-Jan-18 18:10 32.257565 -108.148370 92 28366ft 458kts
10-Jan-18 18:11 32.240768 -107.999166 93 27399ft 457kts
10-Jan-18 18:12 32.223728 -107.850253 93 26436ft 459kts
10-Jan-18 18:13 32.206380 -107.701100 93 24957ft 462kts
10-Jan-18 18:14 32.188409 -107.551774 94 22717ft 460kts
10-Jan-18 18:15 32.170541 -107.402038 94 20492ft 462kts
10-Jan-18 18:16 32.152931 -107.253271 95 18252ft 463kts
10-Jan-18 18:17 32.135333 -107.103180 95 15953ft 462kts
10-Jan-18 18:18 32.116447 -106.953269 104 14145ft 462kts
10-Jan-18 18:19 32.083361 -106.807385 105 13074ft 461kts
10-Jan-18 18:20 32.052169 -106.678450 106 12718ft 376kts
10-Jan-18 18:21 32.023113 -106.560754 107 10246ft 372kts
10-Jan-18 18:22 31.992403 -106.454860 112 9760ft 308kts
10-Jan-18 18:23 31.966510 -106.365990 91 9700ft 282kts
10-Jan-18 18:24 31.969076 -106.272938 88 9139ft 282kts
10-Jan-18 18:25 31.925947 -106.206243 147 9007ft 264kts
10-Jan-18 18:26 31.863350 -106.174716 174 8338ft 229kts
10-Jan-18 18:27 31.817266 -106.185688 228 8280ft 178kts
10-Jan-18 18:28 31.780950 -106.223812 259 7380ft 181kts
10-Jan-18 18:29 31.790443 -106.281259 283 5923ft 177kts
10-Jan-18 18:30 31.798832 -106.332373 268 4795ft 139kts
10-Jan-18 18:31 31.801722 -106.374190 273 4526ft 124kts
10-Jan-18 18:32 31.783447 -106.401123 192 5567ft 159kts
10-Jan-18 18:33 31.748996 -106.358373 134 6007ft 188kts
10-Jan-18 18:34 31.722970 -106.311472 105 6178ft 185kts
10-Jan-18 18:35 31.747372 -106.267205 351 5556ft 164kts
10-Jan-18 18:36 31.782237 -106.281340 333 5323ft 158kts
10-Jan-18 18:37 31.800918 -106.308731 266 5053ft 108kts
10-Jan-18 18:38 31.799982 -106.346004 274 4258ft 113kts
10-Jan-18 18:39 31.800641 -106.370503 191 3952ft 11kts
10-Jan-18 18:40 31.800290 -106.370560 194 3953ft 0kts
10-Jan-18 18:41 31.800265 -106.370569 195 3953ft 1kts
10-Jan-18 18:42 31.799625 -106.373477 273 3948ft 14kts
10-Jan-18 18:43 31.799879 -106.378760 270 3942ft 18kts
10-Jan-18 18:44 31.799899 -106.384245 271 3936ft 15kts
10-Jan-18 18:45 31.799884 -106.389578 271 3926ft 16kts
10-Jan-18 18:46 31.800983 -106.393344 266 3925ft 6kts
10-Jan-18 18:47 31.800441 -106.394035 172 3923ft 0kts
10-Jan-18 18:48 31.800441 -106.394035 172 3923ft 0kts
10-Jan-18 18:49 31.800441 -106.394035 172 3923ft 0kts
10-Jan-18 18:50 31.800441 -106.394035 172 3923ft 0kts
10-Jan-18 18:51 31.800441 -106.394035 172 3923ft 0kts
10-Jan-18 18:52 31.800441 -106.394035 172 3923ft 0kts
10-Jan-18 18:53 31.800441 -106.394035 172 3923ft 0kts

Navigation Log

Ident Type
Flight plan parsing failed, navigation log unavailable